Galice, Oregon
Current Conditions -  °F | °C
As of 1:56 PM on Friday 31 Oct 2014 (Local Time) from KSXT Reporting Station
Overcast Overcast  
Wind Chill: 43°   Ceiling: 700
Heat Index: 43°   Visibility: 10mi
Dew Point: 41°   Wind: 0mph
Humidity: 93%   Direction: NA
Pressure: 29.81"   Gusts: NA
Location:  42.5504°N, 123.448°W
Report Text: KSXT 312056Z AUTO 00000KT 10SM OVC007 06/05 A2981 RMK AO2 CIG 003V010 SLP088 T00610050 56011
Loading
Personal Weather Stations






























Interactive Weather Map
Tropical Storm Tracking
New forecast layout! Learn more

10-Day Weather Forecast

Advertisements
Track Severe Weather on mobile